createdAt,value
2022-08-07T00:00:26.640Z,14.32
2022-08-07T00:02:55.935Z,14.23
2022-08-07T00:05:24.101Z,14.22
2022-08-07T00:08:00.075Z,14.25
2022-08-07T00:10:31.407Z,14.14
2022-08-07T00:13:09.545Z,14.15
2022-08-07T00:15:51.286Z,14.04
2022-08-07T00:18:24.656Z,13.88
2022-08-07T00:20:53.915Z,13.91
2022-08-07T00:23:23.635Z,13.89
2022-08-07T00:26:01.635Z,13.84
2022-08-07T00:28:35.599Z,13.75
2022-08-07T00:31:17.718Z,13.66
2022-08-07T00:33:47.419Z,13.74
2022-08-07T00:36:16.822Z,13.68
2022-08-07T00:38:46.381Z,13.69
2022-08-07T00:41:14.990Z,13.64
2022-08-07T00:44:01.580Z,13.57
2022-08-07T00:46:32.871Z,13.57
2022-08-07T00:49:02.845Z,13.58
2022-08-07T00:51:57.054Z,13.63
2022-08-07T00:54:20.524Z,13.62
2022-08-07T00:56:51.295Z,13.58
2022-08-07T00:59:32.672Z,13.58
2022-08-07T01:02:08.947Z,13.54
2022-08-07T01:04:42.958Z,13.45
2022-08-07T01:07:11.861Z,13.39
2022-08-07T01:10:06.690Z,13.39
2022-08-07T01:12:31.482Z,13.37
2022-08-07T01:15:04.070Z,13.40
2022-08-07T01:17:33.781Z,13.32
2022-08-07T01:20:07.956Z,13.23
2022-08-07T01:22:46.910Z,13.17
2022-08-07T01:25:53.885Z,13.06
2022-08-07T01:28:15.645Z,13.11
2022-08-07T01:30:45.654Z,13.08
2022-08-07T01:33:15.821Z,13.03
2022-08-07T01:35:53.409Z,12.97
2022-08-07T01:38:29.221Z,12.79
2022-08-07T01:41:03.598Z,12.72
2022-08-07T01:43:34.628Z,12.76
2022-08-07T01:46:08.146Z,12.70
2022-08-07T01:48:42.170Z,12.66
2022-08-07T01:52:02.623Z,12.57
2022-08-07T01:54:21.971Z,12.62
2022-08-07T01:57:08.428Z,12.65
2022-08-07T01:59:44.159Z,12.57
2022-08-07T02:03:05.614Z,12.48
2022-08-07T02:05:15.767Z,12.40
2022-08-07T02:08:04.031Z,12.36
2022-08-07T02:10:42.268Z,12.26
2022-08-07T02:13:13.327Z,12.19
2022-08-07T02:15:53.125Z,12.15
2022-08-07T02:18:25.985Z,12.14
2022-08-07T02:21:00.111Z,12.11
2022-08-07T02:23:37.564Z,12.18
2022-08-07T02:26:31.341Z,12.12
2022-08-07T02:28:59.010Z,12.15
2022-08-07T02:31:29.604Z,12.12
2022-08-07T02:34:02.943Z,12.06
2022-08-07T02:36:45.225Z,12.03
2022-08-07T02:39:42.844Z,11.98
2022-08-07T02:42:16.169Z,11.92
2022-08-07T02:44:49.745Z,11.89
2022-08-07T02:47:23.511Z,11.83
2022-08-07T02:49:57.907Z,11.84
2022-08-07T02:52:37.187Z,11.81
2022-08-07T02:55:27.342Z,11.72
2022-08-07T02:58:05.725Z,11.80
2022-08-07T03:00:36.038Z,11.68
2022-08-07T03:03:13.355Z,11.73
2022-08-07T03:05:45.604Z,11.65
2022-08-07T03:08:17.283Z,11.68
2022-08-07T03:10:48.176Z,11.67
2022-08-07T03:13:23.898Z,11.73
2022-08-07T03:15:56.810Z,11.70
2022-08-07T03:18:35.085Z,11.52
2022-08-07T03:21:08.648Z,11.50
2022-08-07T03:24:19.495Z,11.54
2022-08-07T03:26:32.404Z,11.48
2022-08-07T03:29:11.069Z,11.51
2022-08-07T03:31:46.365Z,11.47
2022-08-07T03:34:22.508Z,11.38
2022-08-07T03:36:57.374Z,11.23
2022-08-07T03:39:46.531Z,11.15
2022-08-07T03:42:18.870Z,11.14
2022-08-07T03:44:53.383Z,11.17
2022-08-07T03:47:22.678Z,11.19
2022-08-07T03:49:57.651Z,11.20
2022-08-07T03:52:29.704Z,11.24
2022-08-07T03:55:07.512Z,11.22
2022-08-07T03:59:07.381Z,11.18
2022-08-07T04:00:36.562Z,11.15
2022-08-07T04:03:06.239Z,11.12
2022-08-07T04:05:42.150Z,11.14
2022-08-07T04:08:21.641Z,11.16
2022-08-07T04:10:54.649Z,11.08
2022-08-07T04:14:10.858Z,11.02
2022-08-07T04:16:32.709Z,10.90
2022-08-07T04:19:15.235Z,10.98
2022-08-07T04:21:59.050Z,11.02
2022-08-07T04:24:34.055Z,11.00
2022-08-07T04:27:15.171Z,11.03
2022-08-07T04:30:01.990Z,11.01
2022-08-07T04:32:58.302Z,10.97
2022-08-07T04:35:35.204Z,10.96
2022-08-07T04:38:08.109Z,10.98
2022-08-07T04:40:51.401Z,11.05
2022-08-07T04:44:10.555Z,11.17
2022-08-07T04:46:29.591Z,11.48
2022-08-07T04:49:18.278Z,11.70
2022-08-07T04:52:01.497Z,11.57
2022-08-07T04:54:35.769Z,11.52
2022-08-07T04:58:10.441Z,11.65
2022-08-07T05:00:14.412Z,11.77
2022-08-07T05:02:57.024Z,11.91
2022-08-07T05:05:53.606Z,11.99
2022-08-07T05:08:45.854Z,12.25
2022-08-07T05:11:26.293Z,12.39
2022-08-07T05:14:52.379Z,12.66
2022-08-07T05:16:54.910Z,13.19
2022-08-07T05:19:44.133Z,13.53
2022-08-07T05:22:26.548Z,13.43
2022-08-07T05:24:59.542Z,13.58
2022-08-07T05:28:16.515Z,13.57
2022-08-07T05:30:30.164Z,13.43
2022-08-07T05:33:03.287Z,13.59
2022-08-07T05:35:41.858Z,13.89
2022-08-07T05:39:00.770Z,13.92
2022-08-07T05:41:11.977Z,14.05
2022-08-07T05:44:08.596Z,13.94
2022-08-07T05:46:35.883Z,14.61
2022-08-07T05:49:11.710Z,14.74
2022-08-07T05:51:46.594Z,14.90
2022-08-07T05:54:30.928Z,15.14
2022-08-07T05:57:02.546Z,15.62
2022-08-07T05:59:39.028Z,15.82
2022-08-07T06:02:30.657Z,15.81
2022-08-07T06:05:04.019Z,16.16
2022-08-07T06:08:13.237Z,16.88
2022-08-07T06:10:25.290Z,16.97
2022-08-07T06:12:54.576Z,17.47
2022-08-07T06:15:42.152Z,17.29
2022-08-07T06:18:14.333Z,18.00
2022-08-07T06:20:50.773Z,18.40
2022-08-07T06:24:36.815Z,18.18
2022-08-07T06:26:27.436Z,18.77
2022-08-07T06:28:59.578Z,18.94
2022-08-07T06:31:38.557Z,18.27
2022-08-07T06:34:20.605Z,18.88
2022-08-07T06:36:52.210Z,19.21
2022-08-07T06:40:18.344Z,19.36
2022-08-07T06:42:19.104Z,19.43
2022-08-07T06:45:18.369Z,19.92
2022-08-07T06:47:57.471Z,20.46
2022-08-07T06:50:36.091Z,20.43
2022-08-07T06:53:49.305Z,21.27
2022-08-07T06:56:02.093Z,20.43
2022-08-07T06:58:36.773Z,20.47
2022-08-07T07:01:14.239Z,21.10
2022-08-07T07:03:50.248Z,21.65
2022-08-07T07:06:26.910Z,22.34
2022-08-07T07:08:56.767Z,22.08
2022-08-07T07:12:08.389Z,22.49
2022-08-07T07:14:17.427Z,22.84
2022-08-07T07:16:51.188Z,22.74
2022-08-07T07:19:55.678Z,22.94
2022-08-07T07:22:36.857Z,23.83
2022-08-07T07:26:31.639Z,23.72
2022-08-07T07:28:02.800Z,23.48
2022-08-07T07:30:40.059Z,23.49
2022-08-07T07:33:12.246Z,23.95
2022-08-07T07:36:04.122Z,24.82
2022-08-07T07:38:34.920Z,25.64
2022-08-07T07:41:09.187Z,24.97
2022-08-07T07:44:13.693Z,25.02
2022-08-07T07:46:37.200Z,25.93
2022-08-07T07:50:29.611Z,26.57
2022-08-07T07:52:13.428Z,26.33
2022-08-07T07:54:51.244Z,26.77
2022-08-07T07:57:50.465Z,26.85
2022-08-07T08:00:12.234Z,26.74
2022-08-07T08:03:04.621Z,26.77
2022-08-07T08:05:51.002Z,27.37
2022-08-07T08:08:36.231Z,27.82
2022-08-07T08:11:08.210Z,28.19
2022-08-07T08:13:53.225Z,27.87
2022-08-07T08:16:29.977Z,27.34
2022-08-07T08:19:17.734Z,28.01
2022-08-07T08:22:09.820Z,27.93
2022-08-07T08:25:18.821Z,28.35
2022-08-07T08:27:56.943Z,28.61
2022-08-07T08:30:32.188Z,29.02
2022-08-07T08:33:05.579Z,29.04
2022-08-07T08:35:49.987Z,29.26
2022-08-07T08:38:21.621Z,30.11
2022-08-07T08:40:59.098Z,30.25
2022-08-07T08:43:42.302Z,29.93
2022-08-07T08:46:16.642Z,29.98
2022-08-07T08:48:55.071Z,29.80
2022-08-07T08:52:01.124Z,30.09
2022-08-07T08:54:25.994Z,30.20
2022-08-07T08:56:56.086Z,30.03
2022-08-07T08:59:30.133Z,28.70
2022-08-07T09:02:36.535Z,29.28
2022-08-07T09:05:26.399Z,31.07
2022-08-07T09:08:12.376Z,30.49
2022-08-07T09:11:02.867Z,31.57
2022-08-07T09:13:37.823Z,32.02
2022-08-07T09:16:22.758Z,31.33
2022-08-07T09:19:52.128Z,31.81
2022-08-07T09:24:28.353Z,30.84
2022-08-07T09:25:14.550Z,31.01
2022-08-07T09:27:54.672Z,31.02
2022-08-07T09:30:34.225Z,30.89
2022-08-07T09:33:24.166Z,30.57
2022-08-07T09:36:07.639Z,31.28
2022-08-07T09:38:50.247Z,30.81
2022-08-07T09:41:58.486Z,30.97
2022-08-07T09:47:24.682Z,31.46
2022-08-07T09:47:59.414Z,31.91
2022-08-07T09:50:36.459Z,31.98
2022-08-07T09:53:12.574Z,31.17
2022-08-07T09:56:05.358Z,32.18
2022-08-07T09:59:00.932Z,31.13
2022-08-07T10:02:06.015Z,30.54
2022-08-07T10:05:00.478Z,32.21
2022-08-07T10:08:00.814Z,32.56
2022-08-07T10:11:16.917Z,31.26
2022-08-07T10:14:01.728Z,32.03
2022-08-07T10:17:14.290Z,33.06
2022-08-07T10:19:57.457Z,33.66
2022-08-07T10:23:07.569Z,32.51
2022-08-07T10:25:55.052Z,33.85
2022-08-07T10:28:49.335Z,34.41
2022-08-07T10:31:39.353Z,32.80
2022-08-07T10:34:27.323Z,33.96
2022-08-07T10:37:12.656Z,32.53
2022-08-07T10:40:02.578Z,31.43
2022-08-07T10:42:41.316Z,31.63
2022-08-07T10:45:19.587Z,31.37
2022-08-07T10:48:22.224Z,32.49
2022-08-07T10:50:55.313Z,33.46
2022-08-07T10:53:44.567Z,33.37
2022-08-07T10:56:31.480Z,33.29
2022-08-07T10:59:10.564Z,33.61
2022-08-07T11:01:51.587Z,34.57
2022-08-07T11:04:52.031Z,34.43
2022-08-07T11:07:59.442Z,32.99
2022-08-07T11:10:27.541Z,35.63
2022-08-07T11:13:03.333Z,34.82
2022-08-07T11:15:36.123Z,32.44
2022-08-07T11:18:12.538Z,34.02
2022-08-07T11:20:49.545Z,34.88
2022-08-07T11:23:30.723Z,35.42
2022-08-07T11:26:13.340Z,34.86
2022-08-07T11:28:55.155Z,32.79
2022-08-07T11:31:35.138Z,34.55
2022-08-07T11:34:11.641Z,34.23
2022-08-07T11:36:57.767Z,33.40
2022-08-07T11:40:00.535Z,33.36
2022-08-07T11:42:41.904Z,32.70
2022-08-07T11:45:20.616Z,33.44
2022-08-07T11:48:29.494Z,33.56
2022-08-07T11:51:40.882Z,33.81
2022-08-07T11:54:40.003Z,34.12
2022-08-07T11:57:58.026Z,34.68
2022-08-07T12:00:18.958Z,34.24
2022-08-07T12:03:42.300Z,33.78
2022-08-07T12:06:37.012Z,34.24
2022-08-07T12:09:16.441Z,34.26
2022-08-07T12:12:10.001Z,33.92
2022-08-07T12:14:53.774Z,33.82
2022-08-07T12:17:35.591Z,34.11
2022-08-07T12:20:20.796Z,34.14
2022-08-07T12:24:06.376Z,33.78
2022-08-07T12:26:29.836Z,34.43
2022-08-07T12:29:08.365Z,35.36
2022-08-07T12:32:01.867Z,35.24
2022-08-07T12:34:31.433Z,35.02
2022-08-07T12:37:01.855Z,34.90
2022-08-07T12:39:43.949Z,34.88
2022-08-07T12:42:14.189Z,34.96
2022-08-07T12:44:48.653Z,34.12
2022-08-07T12:47:26.837Z,33.68
2022-08-07T12:50:34.081Z,33.25
2022-08-07T12:53:05.255Z,33.07
2022-08-07T12:56:02.649Z,34.04
2022-08-07T12:58:37.449Z,33.42
2022-08-07T13:01:20.161Z,33.50
2022-08-07T13:04:05.860Z,34.10
2022-08-07T13:07:02.048Z,33.08
2022-08-07T13:10:28.484Z,33.96
2022-08-07T13:12:52.114Z,33.54
2022-08-07T13:15:31.838Z,32.56
2022-08-07T13:18:26.064Z,32.90
2022-08-07T13:21:00.124Z,32.49
2022-08-07T13:24:00.979Z,32.54
2022-08-07T13:26:32.434Z,32.64
2022-08-07T13:29:04.095Z,32.44
2022-08-07T13:31:55.207Z,33.94
2022-08-07T13:34:38.197Z,33.41
2022-08-07T13:37:19.562Z,32.91
2022-08-07T13:40:36.404Z,32.94
2022-08-07T13:42:47.260Z,32.57
2022-08-07T13:46:06.390Z,32.54
2022-08-07T13:48:20.543Z,33.19
2022-08-07T13:51:01.185Z,33.18
2022-08-07T13:53:35.978Z,32.48
2022-08-07T13:56:36.188Z,32.96
2022-08-07T13:59:13.041Z,33.47
2022-08-07T14:01:51.600Z,32.99
2022-08-07T14:04:36.174Z,32.84
2022-08-07T14:07:10.462Z,33.96
2022-08-07T14:10:03.044Z,31.88
2022-08-07T14:12:41.843Z,31.79
2022-08-07T14:15:23.732Z,31.45
2022-08-07T14:18:27.597Z,31.66
2022-08-07T14:20:54.690Z,31.75
2022-08-07T14:23:58.975Z,31.70
2022-08-07T14:26:28.335Z,31.05
2022-08-07T14:29:07.286Z,31.06
2022-08-07T14:31:42.866Z,30.49
2022-08-07T14:34:19.939Z,30.37
2022-08-07T14:36:56.360Z,29.79
2022-08-07T14:40:16.417Z,29.70
2022-08-07T14:42:20.228Z,30.06
2022-08-07T14:44:54.072Z,30.00
2022-08-07T14:47:33.867Z,29.88
2022-08-07T14:50:11.353Z,29.39
2022-08-07T14:52:42.562Z,29.84
2022-08-07T14:55:17.738Z,29.65
2022-08-07T15:00:42.144Z,29.46
2022-08-07T15:03:16.530Z,28.93
2022-08-07T15:08:50.318Z,29.06
2022-08-07T15:11:54.285Z,28.84
2022-08-07T15:14:20.795Z,28.86
2022-08-07T15:16:54.751Z,28.87
2022-08-07T15:20:30.280Z,28.70
2022-08-07T15:22:29.111Z,28.73
2022-08-07T15:28:32.452Z,28.97
2022-08-07T15:37:04.316Z,29.07
2022-08-07T15:39:17.129Z,27.84
2022-08-07T15:42:45.018Z,28.39
2022-08-07T15:44:52.652Z,28.69
2022-08-07T15:48:00.380Z,28.47
2022-08-07T15:50:37.979Z,28.69
2022-08-07T15:53:12.637Z,28.37
2022-08-07T15:55:53.715Z,28.30
2022-08-07T15:58:39.654Z,28.28
2022-08-07T16:01:20.363Z,27.86
2022-08-07T16:03:57.437Z,28.02
2022-08-07T16:06:31.835Z,28.05
2022-08-07T16:09:04.337Z,27.96
2022-08-07T16:11:58.047Z,27.93
2022-08-07T16:14:38.497Z,27.71
2022-08-07T16:18:01.816Z,27.68
2022-08-07T16:20:33.346Z,27.60
2022-08-07T16:23:53.985Z,27.60
2022-08-07T16:26:14.410Z,27.66
2022-08-07T16:30:05.841Z,27.52
2022-08-07T16:32:02.194Z,27.49
2022-08-07T16:34:48.463Z,27.49
2022-08-07T16:38:03.787Z,27.36
2022-08-07T16:41:17.971Z,27.51
2022-08-07T16:44:06.643Z,27.18
2022-08-07T16:47:18.845Z,27.15
2022-08-07T16:50:38.939Z,27.00
2022-08-07T16:54:01.603Z,27.03
2022-08-07T16:56:21.751Z,27.12
2022-08-07T16:59:14.619Z,26.79
2022-08-07T17:01:57.279Z,26.83
2022-08-07T17:04:37.025Z,26.92
2022-08-07T17:07:28.488Z,26.97
2022-08-07T17:10:30.148Z,26.70
2022-08-07T17:13:17.697Z,26.84
2022-08-07T17:15:53.840Z,26.64
2022-08-07T17:18:31.302Z,26.73
2022-08-07T17:20:59.650Z,26.76
2022-08-07T17:23:44.041Z,26.77
2022-08-07T17:26:23.233Z,26.78
2022-08-07T17:30:13.093Z,26.61
2022-08-07T17:32:30.031Z,26.51
2022-08-07T17:35:51.508Z,26.53
2022-08-07T17:38:05.601Z,26.52
2022-08-07T17:40:50.383Z,26.14
2022-08-07T17:44:01.400Z,26.01
2022-08-07T17:46:34.429Z,25.91
2022-08-07T17:49:11.948Z,25.70
2022-08-07T17:51:59.632Z,25.54
2022-08-07T17:54:53.194Z,25.53
2022-08-07T17:57:32.039Z,25.68
2022-08-07T18:00:27.555Z,25.60
2022-08-07T18:03:11.372Z,25.43
2022-08-07T18:06:02.040Z,25.33
2022-08-07T18:08:35.130Z,25.38
2022-08-07T18:15:08.492Z,25.30
2022-08-07T18:18:45.130Z,25.14
2022-08-07T18:21:11.034Z,25.03
2022-08-07T18:23:43.721Z,24.97
2022-08-07T18:26:26.450Z,24.88
2022-08-07T18:30:08.244Z,24.95
2022-08-07T18:32:16.864Z,24.89
2022-08-07T18:35:08.011Z,24.76
2022-08-07T18:38:56.989Z,24.74
2022-08-07T18:40:53.670Z,24.60
2022-08-07T18:43:42.840Z,24.58
2022-08-07T18:46:25.698Z,24.41
2022-08-07T18:50:32.401Z,24.30
2022-08-07T18:52:51.696Z,24.19
2022-08-07T18:55:42.855Z,24.01
2022-08-07T18:58:42.360Z,24.05
2022-08-07T19:02:18.994Z,23.92
2022-08-07T19:04:37.416Z,23.88
2022-08-07T19:07:34.390Z,23.80
2022-08-07T19:10:10.947Z,23.69
2022-08-07T19:12:59.174Z,23.60
2022-08-07T19:16:05.929Z,23.45
2022-08-07T19:18:45.035Z,23.51
2022-08-07T19:21:48.001Z,23.50
2022-08-07T19:24:30.102Z,23.42
2022-08-07T19:28:57.982Z,23.32
2022-08-07T19:31:04.455Z,23.24
2022-08-07T19:32:47.245Z,23.22
2022-08-07T19:35:22.639Z,23.23
2022-08-07T19:37:58.383Z,23.17
2022-08-07T19:40:31.389Z,23.14
2022-08-07T19:43:09.532Z,23.01
2022-08-07T19:46:07.941Z,22.86
2022-08-07T19:48:42.625Z,22.71
2022-08-07T19:51:20.001Z,22.68
2022-08-07T19:54:31.356Z,22.61
2022-08-07T19:57:51.208Z,22.55
2022-08-07T19:59:40.526Z,22.50
2022-08-07T20:02:18.988Z,22.40
2022-08-07T20:04:50.006Z,22.27
2022-08-07T20:07:47.106Z,22.16
2022-08-07T20:10:35.307Z,22.22
2022-08-07T20:13:22.475Z,22.03
2022-08-07T20:15:53.871Z,21.93
2022-08-07T20:18:32.880Z,22.00
2022-08-07T20:21:22.167Z,21.91
2022-08-07T20:23:54.641Z,21.63
2022-08-07T20:26:32.054Z,21.61
2022-08-07T20:29:16.947Z,21.58
2022-08-07T20:31:59.969Z,21.55
2022-08-07T20:34:49.444Z,21.55
2022-08-07T20:37:22.855Z,21.52
2022-08-07T20:40:04.137Z,21.39
2022-08-07T20:42:38.475Z,21.37
2022-08-07T20:45:33.602Z,21.29
2022-08-07T20:48:01.047Z,21.09
2022-08-07T20:50:31.660Z,20.97
2022-08-07T20:53:00.496Z,20.89
2022-08-07T20:55:32.015Z,20.81
2022-08-07T20:58:12.074Z,20.78
2022-08-07T21:00:53.226Z,20.73
2022-08-07T21:03:25.488Z,20.64
2022-08-07T21:05:57.802Z,20.55
2022-08-07T21:08:37.297Z,20.46
2022-08-07T21:11:10.541Z,20.43
2022-08-07T21:13:43.829Z,20.27
2022-08-07T21:16:29.250Z,20.17
2022-08-07T21:18:58.825Z,20.18
2022-08-07T21:21:33.237Z,20.08
2022-08-07T21:24:27.321Z,19.97
2022-08-07T21:27:07.305Z,19.92
2022-08-07T21:29:53.155Z,19.81
2022-08-07T21:32:48.799Z,19.73
2022-08-07T21:35:34.758Z,19.67
2022-08-07T21:38:27.955Z,19.61
2022-08-07T21:41:06.930Z,19.61
2022-08-07T21:43:55.161Z,19.61
2022-08-07T21:46:31.877Z,19.56
2022-08-07T21:49:14.959Z,19.49
2022-08-07T21:51:54.859Z,19.36
2022-08-07T21:54:30.688Z,19.41
2022-08-07T21:57:30.858Z,19.24
2022-08-07T22:00:07.498Z,19.22
2022-08-07T22:02:45.685Z,19.14
2022-08-07T22:05:44.556Z,19.12
2022-08-07T22:08:06.812Z,19.08
2022-08-07T22:10:42.465Z,19.07
2022-08-07T22:13:15.839Z,19.08
2022-08-07T22:16:42.597Z,18.94
2022-08-07T22:18:45.695Z,18.91
2022-08-07T22:21:20.311Z,18.82
2022-08-07T22:23:54.704Z,18.76
2022-08-07T22:26:27.971Z,18.67
2022-08-07T22:29:04.881Z,18.65
2022-08-07T22:31:58.907Z,18.60
2022-08-07T22:34:49.602Z,18.54
2022-08-07T22:38:03.921Z,18.43
2022-08-07T22:40:27.935Z,18.31
2022-08-07T22:43:02.735Z,18.16
2022-08-07T22:46:05.343Z,18.10
2022-08-07T22:49:01.270Z,18.05
2022-08-07T22:52:13.850Z,17.99
2022-08-07T22:55:30.088Z,17.87
2022-08-07T22:58:11.668Z,17.83
2022-08-07T23:00:49.496Z,17.73
2022-08-07T23:03:59.106Z,17.62
2022-08-07T23:06:43.800Z,17.60
2022-08-07T23:10:04.525Z,17.49
2022-08-07T23:12:46.792Z,17.48
2022-08-07T23:16:06.617Z,17.39
2022-08-07T23:18:27.359Z,17.29
2022-08-07T23:21:30.315Z,17.25
2022-08-07T23:24:28.588Z,17.22
2022-08-07T23:27:12.045Z,17.14
2022-08-07T23:30:37.523Z,17.13
2022-08-07T23:34:34.556Z,17.07
2022-08-07T23:35:56.489Z,16.99
2022-08-07T23:38:43.094Z,16.96
2022-08-07T23:41:33.476Z,16.96
2022-08-07T23:44:19.197Z,17.00
2022-08-07T23:47:20.946Z,17.01
2022-08-07T23:50:29.732Z,17.00
2022-08-07T23:53:06.608Z,16.94
2022-08-07T23:55:55.813Z,16.86
2022-08-07T23:58:38.535Z,16.82
